Time;durP1;ratioP1;P1;durP2;ratioP2;P2;SDS_P1;SDS_P2;PMS_P1;PMS_P2;Temp;Humidity;BMP_temperature;BMP_pressure;BME280_temperature;BME280_humidity;BME280_pressure;Samples;Min_cycle;Max_cycle;Signal;HPM_P1;HPM_P2
2023/03/18 00:00:12;;;;;;;1.30;1.20;;;10.30;68.50;;;;;;5068881;28;20717;-66
2023/03/18 00:02:40;;;;;;;1.10;0.87;;;10.30;67.50;;;;;;5070299;28;20617;-68
2023/03/18 00:05:09;;;;;;;0.30;0.30;;;10.40;68.50;;;;;;5065269;28;20621;-69
2023/03/18 00:07:37;;;;;;;2.87;0.93;;;10.30;69.10;;;;;;5070292;28;20716;-67
2023/03/18 00:10:05;;;;;;;0.87;0.87;;;10.30;71.10;;;;;;5069524;28;20668;-67
2023/03/18 00:12:33;;;;;;;0.70;0.70;;;10.20;69.60;;;;;;5070565;28;20620;-66
2023/03/18 00:15:01;;;;;;;1.27;0.70;;;10.20;70.40;;;;;;5070652;28;21112;-67
2023/03/18 00:17:28;;;;;;;0.53;0.53;;;10.10;69.00;;;;;;5070156;28;20641;-67
2023/03/18 00:19:55;;;;;;;0.80;0.80;;;10.10;68.50;;;;;;5069014;28;20625;-67
2023/03/18 00:22:21;;;;;;;1.10;1.00;;;10.20;68.80;;;;;;5069097;28;20644;-67
2023/03/18 00:24:50;;;;;;;0.80;0.80;;;10.10;70.60;;;;;;5070843;28;20629;-67
2023/03/18 00:27:16;;;;;;;1.63;1.50;;;10.20;66.90;;;;;;5070940;28;20645;-66
2023/03/18 00:29:44;;;;;;;1.00;1.00;;;10.20;68.90;;;;;;5070718;28;20667;-67
2023/03/18 00:32:11;;;;;;;1.03;1.03;;;10.20;68.80;;;;;;5071101;28;20655;-67
2023/03/18 00:34:38;;;;;;;1.60;1.00;;;10.10;68.30;;;;;;5072811;28;20708;-66
2023/03/18 00:37:05;;;;;;;0.47;0.43;;;10.10;70.50;;;;;;5071471;28;20654;-66
2023/03/18 00:39:32;;;;;;;1.43;0.80;;;10.00;70.70;;;;;;5070936;28;20631;-66
2023/03/18 00:42:09;;;;;;;3.13;0.60;;;9.90;72.40;;;;;;5071516;28;20652;-67
2023/03/18 00:44:37;;;;;;;2.93;1.07;;;9.90;73.00;;;;;;5071773;28;20635;-67
2023/03/18 00:47:04;;;;;;;0.97;0.97;;;9.90;73.90;;;;;;5071397;28;20660;-66
2023/03/18 00:49:31;;;;;;;1.43;0.93;;;9.80;73.30;;;;;;5070757;28;20659;-66
2023/03/18 00:51:58;;;;;;;1.33;1.10;;;9.80;73.10;;;;;;5066511;28;20654;-66
2023/03/18 00:54:24;;;;;;;0.77;0.77;;;9.80;73.50;;;;;;5060702;28;20618;-67
2023/03/18 00:56:52;;;;;;;1.57;1.03;;;9.80;74.80;;;;;;5071200;28;20656;-66
2023/03/18 00:59:21;;;;;;;1.27;1.07;;;9.70;74.90;;;;;;5069603;28;20618;-67
2023/03/18 01:01:48;;;;;;;1.10;1.10;;;9.70;76.00;;;;;;5070898;28;20672;-66
2023/03/18 01:04:16;;;;;;;0.40;0.40;;;9.70;76.60;;;;;;5071721;28;21186;-66
2023/03/18 01:06:44;;;;;;;1.83;1.13;;;9.60;73.90;;;;;;5070758;28;20660;-66
2023/03/18 01:09:13;;;;;;;3.37;0.60;;;9.70;76.10;;;;;;5070834;28;20679;-66
2023/03/18 01:11:40;;;;;;;1.87;1.40;;;9.60;73.70;;;;;;5071423;28;20649;-67
2023/03/18 01:14:07;;;;;;;1.17;0.90;;;9.60;72.60;;;;;;5065203;28;20633;-67
2023/03/18 01:16:35;;;;;;;0.50;0.50;;;9.60;73.10;;;;;;5070270;28;20663;-66
2023/03/18 01:19:03;;;;;;;0.63;0.63;;;9.60;75.00;;;;;;5070236;28;20637;-66
2023/03/18 01:21:30;;;;;;;0.50;0.50;;;9.60;73.90;;;;;;5070592;28;21049;-67
2023/03/18 01:23:59;;;;;;;1.03;0.60;;;9.60;74.10;;;;;;5060695;28;20660;-66
2023/03/18 01:26:26;;;;;;;0.60;0.60;;;9.60;73.40;;;;;;5070859;28;20687;-66
2023/03/18 01:28:52;;;;;;;0.40;0.40;;;9.50;78.60;;;;;;5070036;28;20622;-66
2023/03/18 01:31:19;;;;;;;0.73;0.73;;;9.60;73.90;;;;;;5070411;28;20681;-66
2023/03/18 01:33:47;;;;;;;0.60;0.60;;;9.50;73.20;;;;;;5070876;28;21187;-67
2023/03/18 01:36:14;;;;;;;1.63;1.07;;;9.50;72.40;;;;;;5070448;28;20647;-66
2023/03/18 01:38:41;;;;;;;2.20;1.13;;;9.50;72.80;;;;;;5069914;28;20629;-66
2023/03/18 01:41:08;;;;;;;1.07;0.63;;;9.50;72.30;;;;;;5069769;28;20641;-66
2023/03/18 01:43:39;;;;;;;1.77;1.67;;;9.60;72.10;;;;;;5070618;28;20989;-66
2023/03/18 01:46:35;;;;;;;1.07;0.90;;;9.60;72.30;;;;;;5058314;28;20638;-66
2023/03/18 01:49:06;;;;;;;0.70;0.70;;;9.70;71.30;;;;;;5069369;28;20628;-66
2023/03/18 01:51:33;;;;;;;1.07;0.97;;;9.80;69.70;;;;;;5069837;28;20743;-67
2023/03/18 01:54:03;;;;;;;0.40;0.40;;;9.80;69.30;;;;;;5070769;28;20610;-66
2023/03/18 01:56:30;;;;;;;0.90;0.67;;;9.80;70.70;;;;;;5069955;28;20714;-66
2023/03/18 01:58:59;;;;;;;0.40;0.40;;;9.90;69.30;;;;;;5069126;28;20652;-67
2023/03/18 02:01:30;;;;;;;0.70;0.70;;;9.90;70.30;;;;;;5070114;28;21141;-66
2023/03/18 02:03:58;;;;;;;0.83;0.60;;;9.90;70.40;;;;;;5069128;28;20626;-66
2023/03/18 02:06:28;;;;;;;3.20;1.13;;;9.90;69.00;;;;;;5068834;28;20690;-66
2023/03/18 02:08:55;;;;;;;1.77;0.87;;;10.00;67.50;;;;;;5068892;28;20687;-66
2023/03/18 02:11:23;;;;;;;0.60;0.60;;;10.00;66.60;;;;;;5070125;28;21395;-66
2023/03/18 02:13:51;;;;;;;1.10;1.00;;;10.00;68.10;;;;;;5069503;28;20633;-67
2023/03/18 02:16:24;;;;;;;0.87;0.67;;;10.00;67.90;;;;;;5069404;28;20665;-67
2023/03/18 02:18:55;;;;;;;0.83;0.63;;;10.00;68.20;;;;;;5068734;28;21194;-66
2023/03/18 02:21:37;;;;;;;0.80;0.80;;;10.00;67.00;;;;;;5070012;28;20641;-66
2023/03/18 02:24:16;;;;;;;1.07;0.70;;;10.10;66.30;;;;;;5050368;28;20616;-66
2023/03/18 02:26:56;;;;;;;0.30;0.30;;;10.10;66.10;;;;;;5059932;28;20645;-67
2023/03/18 02:29:26;;;;;;;0.63;0.63;;;10.10;66.20;;;;;;5068569;28;20644;-66
2023/03/18 02:31:55;;;;;;;0.70;0.43;;;10.00;65.90;;;;;;5069625;28;20768;-68
2023/03/18 02:34:24;;;;;;;0.90;0.90;;;10.00;68.60;;;;;;5069358;28;20675;-66
2023/03/18 02:36:52;;;;;;;0.70;0.70;;;9.90;69.70;;;;;;5067348;28;20711;-66
2023/03/18 02:39:21;;;;;;;1.10;0.50;;;9.90;72.50;;;;;;5065849;28;20610;-67
2023/03/18 02:41:49;;;;;;;1.17;0.57;;;9.90;68.90;;;;;;5068343;28;21226;-68
2023/03/18 02:44:19;;;;;;;0.93;0.50;;;9.90;68.70;;;;;;5067857;28;20999;-66
2023/03/18 02:46:54;;;;;;;0.60;0.50;;;10.00;67.00;;;;;;5067472;28;20671;-68
2023/03/18 02:49:23;;;;;;;1.80;0.97;;;10.00;67.30;;;;;;5065696;28;21197;-66
2023/03/18 02:51:51;;;;;;;1.27;1.17;;;9.90;68.90;;;;;;5064766;28;20669;-67
2023/03/18 02:54:24;;;;;;;0.80;0.80;;;10.00;66.60;;;;;;5065897;28;20617;-67
2023/03/18 02:56:54;;;;;;;0.63;0.60;;;10.30;70.80;;;;;;5067675;28;21052;-68
2023/03/18 02:59:22;;;;;;;0.50;0.50;;;10.00;66.60;;;;;;5067632;28;20678;-66
2023/03/18 03:01:53;;;;;;;0.73;0.73;;;10.00;66.80;;;;;;5067907;28;20633;-66
2023/03/18 03:04:23;;;;;;;0.80;0.50;;;10.00;67.10;;;;;;5067144;28;20617;-67
2023/03/18 03:06:51;;;;;;;1.10;0.63;;;9.90;68.90;;;;;;5067027;28;20728;-67
2023/03/18 03:09:18;;;;;;;0.80;0.80;;;9.90;68.50;;;;;;5067528;28;20610;-66
2023/03/18 03:11:47;;;;;;;0.57;0.50;;;9.90;69.00;;;;;;5067672;28;21018;-67
2023/03/18 03:14:15;;;;;;;0.90;0.90;;;9.90;68.70;;;;;;5065072;28;20713;-68
2023/03/18 03:16:42;;;;;;;0.40;0.30;;;9.90;69.70;;;;;;5067431;28;21053;-67
2023/03/18 03:19:11;;;;;;;0.40;0.33;;;9.70;74.20;;;;;;5065507;28;21259;-66
2023/03/18 03:21:39;;;;;;;0.93;0.60;;;9.80;70.30;;;;;;5067357;28;21473;-66
2023/03/18 03:24:08;;;;;;;2.00;1.43;;;9.80;71.10;;;;;;5067442;28;20624;-67
2023/03/18 03:26:36;;;;;;;0.93;0.93;;;9.70;71.50;;;;;;5067833;28;20650;-67
2023/03/18 03:29:05;;;;;;;0.70;0.70;;;9.70;72.00;;;;;;5066020;28;21222;-66
2023/03/18 03:31:33;;;;;;;0.50;0.50;;;9.60;71.80;;;;;;5066120;28;21263;-68
2023/03/18 03:34:00;;;;;;;1.10;0.77;;;9.60;70.60;;;;;;5066986;28;22065;-67
2023/03/18 03:36:28;;;;;;;1.57;0.83;;;9.70;71.10;;;;;;5067096;28;20729;-67
2023/03/18 03:38:56;;;;;;;0.40;0.40;;;9.60;70.50;;;;;;5066884;28;21093;-67
2023/03/18 03:41:23;;;;;;;0.70;0.70;;;9.70;70.50;;;;;;5071544;28;20633;-66
2023/03/18 03:43:50;;;;;;;0.83;0.70;;;9.60;70.60;;;;;;5070198;28;21081;-67
2023/03/18 03:46:17;;;;;;;0.60;0.50;;;9.60;70.30;;;;;;5070515;28;20637;-67
2023/03/18 03:48:46;;;;;;;0.83;0.73;;;9.60;70.60;;;;;;5069344;28;20674;-68
2023/03/18 03:51:14;;;;;;;0.50;0.50;;;9.60;70.30;;;;;;5069626;28;20673;-69
2023/03/18 03:53:45;;;;;;;0.60;0.60;;;9.60;70.10;;;;;;5068134;28;20625;-66
2023/03/18 03:56:12;;;;;;;0.40;0.37;;;9.50;71.10;;;;;;5069736;28;21078;-68
2023/03/18 03:58:39;;;;;;;5.00;1.60;;;9.50;72.00;;;;;;5070165;28;20753;-66
2023/03/18 04:01:07;;;;;;;0.50;0.50;;;9.40;71.20;;;;;;5070358;28;20649;-67
2023/03/18 04:03:34;;;;;;;6.10;0.87;;;9.40;71.10;;;;;;5071169;28;20630;-67
2023/03/18 04:06:02;;;;;;;1.67;1.00;;;9.50;71.40;;;;;;5070478;28;20704;-67
2023/03/18 04:08:29;;;;;;;0.60;0.50;;;9.30;73.70;;;;;;5067635;28;20976;-66
2023/03/18 04:10:58;;;;;;;1.90;0.77;;;9.50;70.40;;;;;;5070577;28;20661;-67
2023/03/18 04:13:25;;;;;;;0.93;0.73;;;9.50;70.80;;;;;;5070851;28;20617;-66
2023/03/18 04:15:52;;;;;;;0.60;0.60;;;9.40;70.80;;;;;;5070546;28;20656;-66
2023/03/18 04:18:18;;;;;;;0.63;0.63;;;9.40;71.20;;;;;;5068926;28;21471;-66
2023/03/18 04:20:45;;;;;;;1.10;1.00;;;9.40;70.70;;;;;;5070063;28;21233;-66
2023/03/18 04:23:13;;;;;;;0.60;0.60;;;9.40;71.00;;;;;;5070266;28;20641;-67
2023/03/18 04:25:39;;;;;;;0.73;0.70;;;9.30;71.40;;;;;;5069886;28;21038;-67
2023/03/18 04:28:08;;;;;;;0.80;0.80;;;9.30;72.50;;;;;;5069273;28;20667;-67
2023/03/18 04:30:35;;;;;;;0.40;0.40;;;9.20;73.40;;;;;;5069214;28;20661;-66
2023/03/18 04:33:02;;;;;;;1.30;1.10;;;9.10;72.20;;;;;;5070754;28;20698;-67
2023/03/18 04:35:29;;;;;;;0.63;0.57;;;9.00;74.30;;;;;;5069354;28;20625;-68
2023/03/18 04:37:56;;;;;;;0.80;0.60;;;9.00;73.20;;;;;;5070187;28;20628;-67
2023/03/18 04:40:23;;;;;;;0.60;0.60;;;9.00;73.30;;;;;;5068408;28;20634;-67
2023/03/18 04:42:49;;;;;;;0.50;0.50;;;9.00;73.30;;;;;;5069927;28;20621;-67
2023/03/18 04:45:18;;;;;;;0.87;0.70;;;8.90;73.30;;;;;;5070216;28;20625;-66
2023/03/18 04:47:46;;;;;;;0.40;0.40;;;8.90;74.10;;;;;;5068100;28;20624;-67
2023/03/18 04:50:13;;;;;;;1.40;1.30;;;8.90;74.60;;;;;;5067363;28;20626;-67
2023/03/18 04:52:40;;;;;;;1.80;0.70;;;8.80;73.90;;;;;;5067890;28;20671;-66
2023/03/18 04:55:08;;;;;;;2.20;0.63;;;8.80;74.30;;;;;;5070834;28;21430;-67
2023/03/18 04:57:36;;;;;;;1.13;1.03;;;8.80;74.20;;;;;;5069984;28;21130;-67
2023/03/18 05:00:04;;;;;;;0.80;0.60;;;8.70;75.20;;;;;;5069041;28;20676;-67
2023/03/18 05:02:33;;;;;;;0.70;0.43;;;8.60;75.80;;;;;;5070193;28;20622;-66
2023/03/18 05:05:00;;;;;;;0.60;0.50;;;8.50;76.20;;;;;;5069195;28;20617;-67
2023/03/18 05:07:27;;;;;;;0.80;0.60;;;8.40;76.80;;;;;;5068438;28;20641;-66
2023/03/18 05:09:54;;;;;;;1.23;0.53;;;8.30;77.40;;;;;;5069115;28;20695;-66
2023/03/18 05:12:21;;;;;;;1.10;0.80;;;8.20;77.30;;;;;;5069784;28;20726;-66
2023/03/18 05:14:48;;;;;;;0.60;0.50;;;8.10;77.40;;;;;;5068013;28;20691;-66
2023/03/18 05:17:15;;;;;;;0.90;0.90;;;8.10;77.50;;;;;;5069004;28;20645;-66
2023/03/18 05:19:45;;;;;;;0.63;0.60;;;8.10;77.70;;;;;;5068458;28;20624;-67
2023/03/18 05:22:13;;;;;;;1.53;0.63;;;8.00;77.80;;;;;;5068652;28;20650;-66
2023/03/18 05:24:42;;;;;;;1.00;0.97;;;8.00;78.40;;;;;;5070479;28;20617;-66
2023/03/18 05:27:09;;;;;;;1.37;0.87;;;7.90;78.40;;;;;;5069144;28;20704;-66
2023/03/18 05:29:36;;;;;;;17.53;1.17;;;7.80;78.50;;;;;;5068287;28;20618;-66
2023/03/18 05:32:05;;;;;;;2.47;2.27;;;7.90;78.70;;;;;;5068987;28;21023;-67
2023/03/18 05:34:32;;;;;;;0.63;0.63;;;7.80;78.60;;;;;;5069513;28;20683;-66
2023/03/18 05:37:01;;;;;;;1.27;1.03;;;7.80;79.40;;;;;;5069288;28;20649;-66
2023/03/18 05:39:27;;;;;;;0.80;0.50;;;7.80;79.60;;;;;;5069736;28;20688;-66
2023/03/18 05:41:54;;;;;;;1.50;0.70;;;7.70;80.70;;;;;;5070751;28;20649;-66
2023/03/18 05:44:22;;;;;;;2.20;0.77;;;7.70;81.30;;;;;;5070693;28;20664;-66
2023/03/18 05:46:49;;;;;;;1.57;1.40;;;7.70;81.20;;;;;;5069985;28;20649;-66
2023/03/18 05:49:16;;;;;;;1.90;1.40;;;7.70;81.10;;;;;;5069295;28;20649;-66
2023/03/18 05:51:43;;;;;;;0.93;0.60;;;7.50;84.40;;;;;;5067312;28;20793;-67
2023/03/18 05:54:11;;;;;;;2.23;1.00;;;7.60;81.00;;;;;;5055303;28;20587;-66
2023/03/18 05:56:38;;;;;;;0.80;0.60;;;7.60;81.60;;;;;;5070794;28;20649;-66
2023/03/18 05:59:06;;;;;;;0.90;0.80;;;7.70;80.70;;;;;;5069009;28;20954;-66
2023/03/18 06:01:33;;;;;;;0.50;0.50;;;7.60;82.10;;;;;;5069668;28;20656;-66
2023/03/18 06:04:00;;;;;;;0.87;0.60;;;7.70;81.30;;;;;;5070514;28;20729;-67
2023/03/18 06:06:27;;;;;;;20.03;1.00;;;7.70;81.20;;;;;;5069930;28;20645;-66
2023/03/18 06:08:55;;;;;;;1.37;1.27;;;7.60;80.40;;;;;;5069001;28;20609;-66
2023/03/18 06:11:23;;;;;;;0.70;0.70;;;7.60;80.40;;;;;;5069319;28;20649;-66
2023/03/18 06:13:51;;;;;;;1.47;0.57;;;7.60;80.50;;;;;;5068947;28;20629;-67
2023/03/18 06:16:17;;;;;;;1.17;1.07;;;7.60;81.10;;;;;;5069590;28;20738;-66
2023/03/18 06:18:44;;;;;;;1.00;1.00;;;7.60;80.30;;;;;;5069246;28;20643;-66
2023/03/18 06:21:11;;;;;;;1.93;1.40;;;7.60;81.50;;;;;;5070389;28;21040;-66
2023/03/18 06:23:38;;;;;;;1.60;1.50;;;7.50;82.10;;;;;;5069169;28;20617;-68
2023/03/18 06:26:06;;;;;;;0.87;0.70;;;7.40;82.30;;;;;;5069700;28;20651;-66
2023/03/18 06:28:34;;;;;;;0.83;0.83;;;7.50;81.40;;;;;;5067483;28;21043;-67
2023/03/18 06:31:01;;;;;;;0.88;0.85;;;7.60;81.80;;;;;;5069704;28;20652;-66
2023/03/18 06:33:28;;;;;;;0.70;0.50;;;7.60;81.90;;;;;;5069149;28;20294;-68
2023/03/18 06:35:56;;;;;;;1.17;1.07;;;7.50;82.40;;;;;;5068794;28;21143;-69
2023/03/18 06:38:23;;;;;;;0.80;0.80;;;7.50;82.70;;;;;;5068124;28;20656;-68
2023/03/18 06:40:50;;;;;;;1.57;1.47;;;7.60;82.20;;;;;;5069003;28;20645;-67
2023/03/18 06:43:17;;;;;;;1.80;1.50;;;7.90;86.60;;;;;;5068530;28;20630;-68
2023/03/18 06:45:45;;;;;;;2.10;1.40;;;7.70;81.40;;;;;;5069845;28;20745;-67
2023/03/18 06:48:12;;;;;;;1.43;0.80;;;7.70;80.80;;;;;;5069882;28;21004;-68
2023/03/18 06:50:39;;;;;;;3.80;1.50;;;7.80;80.60;;;;;;5069663;28;20752;-68
2023/03/18 06:53:06;;;;;;;1.03;0.90;;;7.80;80.70;;;;;;5069451;28;20727;-68
2023/03/18 06:55:33;;;;;;;1.40;1.30;;;7.90;80.60;;;;;;5068981;28;20824;-69
2023/03/18 06:58:01;;;;;;;1.80;1.50;;;7.90;80.80;;;;;;5069233;28;20618;-68
2023/03/18 07:00:28;;;;;;;1.43;0.90;;;7.90;80.60;;;;;;5069378;28;20711;-68
2023/03/18 07:02:56;;;;;;;1.00;1.00;;;7.90;80.70;;;;;;5070267;28;20622;-68
2023/03/18 07:05:23;;;;;;;1.97;1.30;;;8.10;80.60;;;;;;5069747;28;20636;-68
2023/03/18 07:07:50;;;;;;;0.73;0.50;;;8.20;80.70;;;;;;5070542;28;21415;-68
2023/03/18 07:10:22;;;;;;;0.63;0.63;;;8.30;80.40;;;;;;5068879;28;21155;-69
2023/03/18 07:12:51;;;;;;;0.83;0.70;;;8.50;80.30;;;;;;5069714;28;21229;-68
2023/03/18 07:15:19;;;;;;;0.67;0.67;;;8.60;79.80;;;;;;5072947;28;20633;-68
2023/03/18 07:17:46;;;;;;;0.70;0.70;;;8.70;79.80;;;;;;5074015;28;20626;-68
2023/03/18 07:20:15;;;;;;;0.53;0.53;;;8.90;79.50;;;;;;5073204;28;20617;-68
2023/03/18 07:22:42;;;;;;;0.90;0.87;;;9.00;78.80;;;;;;5072909;28;21213;-69
2023/03/18 07:25:10;;;;;;;3.43;0.73;;;9.10;78.80;;;;;;5073489;28;20641;-68
2023/03/18 07:27:37;;;;;;;0.90;0.90;;;9.20;79.40;;;;;;5073726;28;20625;-68
2023/03/18 07:30:05;;;;;;;1.00;0.90;;;9.40;78.20;;;;;;5072994;28;20618;-69
2023/03/18 07:32:32;;;;;;;0.83;0.70;;;9.50;78.20;;;;;;5073352;28;21241;-68
2023/03/18 07:34:59;;;;;;;1.90;0.90;;;9.60;77.70;;;;;;5073768;28;20820;-68
2023/03/18 07:37:27;;;;;;;1.27;0.83;;;9.80;76.10;;;;;;5072801;28;20661;-68
2023/03/18 07:39:55;;;;;;;1.50;1.10;;;9.90;75.70;;;;;;5073081;28;20621;-68
2023/03/18 07:42:21;;;;;;;1.33;1.23;;;10.10;72.90;;;;;;5073331;28;20661;-68
2023/03/18 07:44:48;;;;;;;1.40;0.87;;;10.20;73.00;;;;;;5073831;28;20625;-68
2023/03/18 07:47:15;;;;;;;1.63;1.33;;;10.40;72.70;;;;;;5072719;28;20652;-68
2023/03/18 07:49:43;;;;;;;0.77;0.77;;;10.50;72.00;;;;;;5071666;28;20622;-68
2023/03/18 07:52:11;;;;;;;1.30;1.20;;;10.60;72.20;;;;;;5071114;28;20669;-68
2023/03/18 07:54:39;;;;;;;1.57;1.47;;;10.70;71.90;;;;;;5073850;28;21012;-68
2023/03/18 07:57:06;;;;;;;0.83;0.60;;;10.90;71.40;;;;;;5072724;28;20652;-68
2023/03/18 07:59:33;;;;;;;0.97;0.50;;;11.10;70.30;;;;;;5072760;28;21244;-68
2023/03/18 08:02:00;;;;;;;1.20;0.97;;;11.20;70.50;;;;;;5072348;28;21005;-68
2023/03/18 08:04:27;;;;;;;1.10;0.93;;;11.20;69.40;;;;;;5072484;28;20659;-68
2023/03/18 08:06:54;;;;;;;0.80;0.60;;;11.40;69.40;;;;;;5072896;28;20986;-68
2023/03/18 08:09:21;;;;;;;0.80;0.60;;;11.50;69.20;;;;;;5072721;28;20990;-69
2023/03/18 08:11:49;;;;;;;2.20;0.70;;;11.60;67.90;;;;;;5072738;28;20692;-68
2023/03/18 08:14:16;;;;;;;0.83;0.70;;;11.70;67.20;;;;;;5067115;28;21203;-68
2023/03/18 08:16:43;;;;;;;0.50;0.40;;;11.90;67.20;;;;;;5072349;28;21017;-69
2023/03/18 08:19:10;;;;;;;1.03;0.73;;;12.00;65.40;;;;;;5071746;28;20617;-68
2023/03/18 08:21:41;;;;;;;0.67;0.67;;;12.10;64.70;;;;;;5072468;28;20653;-70
2023/03/18 08:24:10;;;;;;;0.40;0.33;;;12.20;64.30;;;;;;5073089;28;20652;-71
2023/03/18 08:26:37;;;;;;;0.60;0.60;;;12.30;64.70;;;;;;5070549;28;20649;-71
2023/03/18 08:29:06;;;;;;;1.70;0.83;;;12.30;64.70;;;;;;5071978;28;20629;-71
2023/03/18 08:31:32;;;;;;;1.27;0.60;;;12.50;64.40;;;;;;5071183;28;20656;-67
2023/03/18 08:34:00;;;;;;;0.50;0.50;;;12.60;64.00;;;;;;5072323;28;20661;-67
2023/03/18 08:36:27;;;;;;;0.50;0.50;;;12.70;61.90;;;;;;5071888;28;20653;-67
2023/03/18 08:38:55;;;;;;;0.40;0.40;;;12.90;63.80;;;;;;5070266;28;20995;-68
2023/03/18 08:41:24;;;;;;;2.10;1.23;;;13.00;62.70;;;;;;5070343;28;20660;-67
2023/03/18 08:43:51;;;;;;;0.70;0.53;;;13.10;61.50;;;;;;5071872;28;20657;-67
2023/03/18 08:46:19;;;;;;;1.63;0.77;;;13.30;62.10;;;;;;5069957;28;20760;-68
2023/03/18 08:48:46;;;;;;;1.67;0.50;;;13.40;61.30;;;;;;5068782;28;20618;-67
2023/03/18 08:51:13;;;;;;;0.53;0.53;;;13.50;61.50;;;;;;5071077;28;20694;-67
2023/03/18 08:53:40;;;;;;;0.87;0.70;;;13.50;61.40;;;;;;5069978;28;20669;-67
2023/03/18 08:56:08;;;;;;;0.97;0.87;;;13.60;60.50;;;;;;5070853;28;20649;-67
2023/03/18 08:58:36;;;;;;;0.70;0.70;;;13.70;59.80;;;;;;5069123;28;20617;-67
2023/03/18 09:01:04;;;;;;;1.07;0.60;;;13.80;60.00;;;;;;5071511;28;20728;-67
2023/03/18 09:03:32;;;;;;;3.23;1.10;;;13.90;57.70;;;;;;5071260;28;21179;-67
2023/03/18 09:05:59;;;;;;;1.23;0.80;;;14.00;58.10;;;;;;5069215;28;21500;-67
2023/03/18 09:08:28;;;;;;;0.70;0.70;;;14.20;59.40;;;;;;5070400;28;20622;-67
2023/03/18 09:10:55;;;;;;;1.50;0.70;;;14.30;58.80;;;;;;5070632;28;20685;-68
2023/03/18 09:13:23;;;;;;;2.30;1.23;;;14.40;58.50;;;;;;5071495;28;20670;-67
2023/03/18 09:15:50;;;;;;;0.80;0.80;;;14.50;57.40;;;;;;5071487;28;20984;-67
2023/03/18 09:18:18;;;;;;;0.73;0.73;;;14.50;57.40;;;;;;5070184;28;20625;-67
2023/03/18 09:20:46;;;;;;;0.90;0.80;;;14.50;57.30;;;;;;5070975;28;20756;-67
2023/03/18 09:23:17;;;;;;;0.57;0.40;;;14.60;57.70;;;;;;5071102;28;20972;-67
2023/03/18 09:25:45;;;;;;;0.63;0.63;;;14.70;57.50;;;;;;5070560;28;20759;-67
2023/03/18 09:28:12;;;;;;;0.60;0.60;;;14.80;57.10;;;;;;5069591;28;20633;-67
2023/03/18 09:30:40;;;;;;;0.63;0.50;;;14.90;57.40;;;;;;5070676;28;20673;-67
2023/03/18 09:33:08;;;;;;;0.87;0.80;;;15.10;56.90;;;;;;5070621;28;21072;-67
2023/03/18 09:35:35;;;;;;;1.10;1.00;;;15.10;57.30;;;;;;5070449;28;20653;-67
2023/03/18 09:38:03;;;;;;;0.50;0.40;;;15.20;57.40;;;;;;5069665;28;21168;-67
2023/03/18 09:40:32;;;;;;;0.50;0.50;;;15.30;57.00;;;;;;5069511;28;20653;-67
2023/03/18 09:43:13;;;;;;;1.33;0.77;;;15.30;57.20;;;;;;5070693;28;20657;-68
2023/03/18 09:45:51;;;;;;;0.70;0.70;;;15.40;56.20;;;;;;5070141;28;21138;-67
2023/03/18 09:48:42;;;;;;;0.90;0.90;;;15.40;54.90;;;;;;5069293;28;20625;-67
2023/03/18 09:51:18;;;;;;;0.93;0.93;;;15.40;56.10;;;;;;5070141;28;20645;-68
2023/03/18 09:53:52;;;;;;;0.97;0.80;;;15.50;54.20;;;;;;5068991;28;21263;-67
2023/03/18 09:56:24;;;;;;;1.23;0.87;;;15.60;55.10;;;;;;5070238;28;20649;-67
2023/03/18 09:58:56;;;;;;;1.80;0.63;;;15.70;55.00;;;;;;5068381;28;21171;-68
2023/03/18 10:01:26;;;;;;;1.20;0.50;;;15.80;53.50;;;;;;5065931;28;20695;-68
2023/03/18 10:03:59;;;;;;;1.00;0.80;;;15.80;53.60;;;;;;5070992;28;20622;-67
2023/03/18 10:06:26;;;;;;;0.80;0.40;;;15.90;54.00;;;;;;5069819;28;20659;-65
2023/03/18 10:09:04;;;;;;;0.40;0.40;;;15.90;54.30;;;;;;5069720;28;20724;-65
2023/03/18 10:11:33;;;;;;;0.43;0.40;;;15.90;53.10;;;;;;5069451;28;20656;-65
2023/03/18 10:14:15;;;;;;;0.77;0.77;;;16.00;52.40;;;;;;5064314;28;20665;-65
2023/03/18 10:16:54;;;;;;;0.70;0.70;;;15.90;52.60;;;;;;5070145;28;20683;-67
2023/03/18 10:19:21;;;;;;;0.60;0.60;;;16.00;53.80;;;;;;5069261;28;21442;-67
2023/03/18 10:21:57;;;;;;;0.53;0.53;;;16.00;55.00;;;;;;5068936;28;20645;-68
2023/03/18 10:24:32;;;;;;;2.63;0.70;;;16.10;54.60;;;;;;5069967;28;20626;-68
2023/03/18 10:27:09;;;;;;;0.50;0.50;;;16.10;55.50;;;;;;5069785;28;20641;-68
2023/03/18 10:29:41;;;;;;;1.23;0.63;;;16.40;56.20;;;;;;5049421;28;21216;-68
2023/03/18 10:32:15;;;;;;;1.00;0.90;;;16.20;55.20;;;;;;5066435;28;20653;-68
2023/03/18 10:34:52;;;;;;;0.50;0.40;;;16.20;55.00;;;;;;5070365;28;21173;-67
2023/03/18 10:37:30;;;;;;;0.90;0.70;;;16.30;54.40;;;;;;5069766;28;21307;-67
2023/03/18 10:39:59;;;;;;;0.63;0.63;;;16.30;54.80;;;;;;5068999;28;21368;-68
2023/03/18 10:42:29;;;;;;;1.00;0.77;;;16.30;54.30;;;;;;5068911;28;20660;-67
2023/03/18 10:45:07;;;;;;;1.13;0.97;;;16.30;53.00;;;;;;5069305;28;20618;-67
2023/03/18 10:47:40;;;;;;;1.80;0.93;;;16.30;54.30;;;;;;5068574;28;20629;-68
2023/03/18 10:50:17;;;;;;;0.80;0.57;;;16.50;54.30;;;;;;5066028;28;20622;-68
2023/03/18 10:52:52;;;;;;;0.80;0.60;;;16.50;53.80;;;;;;5065973;28;20691;-67
2023/03/18 10:55:26;;;;;;;0.97;0.80;;;16.40;53.20;;;;;;5066906;28;20627;-67
2023/03/18 10:57:53;;;;;;;0.97;0.70;;;16.30;52.80;;;;;;5067558;28;20661;-67
2023/03/18 11:00:28;;;;;;;1.00;0.60;;;16.40;52.90;;;;;;5067389;28;20628;-68
2023/03/18 11:02:55;;;;;;;1.30;0.97;;;16.40;52.50;;;;;;5068507;28;20707;-67
2023/03/18 11:05:25;;;;;;;0.47;0.33;;;16.40;52.80;;;;;;5066945;28;20621;-68
2023/03/18 11:07:57;;;;;;;0.60;0.60;;;16.40;51.10;;;;;;5068688;28;20708;-67
2023/03/18 11:10:29;;;;;;;0.60;0.60;;;16.20;50.20;;;;;;5069004;28;20637;-67
2023/03/18 11:13:01;;;;;;;2.60;0.70;;;16.20;52.50;;;;;;5069559;28;21302;-67
2023/03/18 11:15:28;;;;;;;1.07;0.80;;;16.30;54.70;;;;;;5068884;28;20664;-67
2023/03/18 11:17:58;;;;;;;1.00;0.90;;;16.30;54.70;;;;;;5069828;28;20620;-67
2023/03/18 11:20:41;;;;;;;0.50;0.50;;;16.40;55.00;;;;;;5068377;28;21293;-67
2023/03/18 11:23:16;;;;;;;0.60;0.50;;;16.40;54.20;;;;;;5069865;28;20630;-68
2023/03/18 11:25:47;;;;;;;1.07;0.97;;;16.50;50.20;;;;;;5068857;28;20655;-67
2023/03/18 11:28:21;;;;;;;1.30;0.50;;;16.60;51.30;;;;;;5049375;28;20689;-67
2023/03/18 11:30:51;;;;;;;0.60;0.50;;;16.60;49.80;;;;;;5069244;28;20660;-67
2023/03/18 11:33:18;;;;;;;0.90;0.80;;;16.60;48.90;;;;;;5069007;28;20668;-67
2023/03/18 11:35:50;;;;;;;0.47;0.47;;;16.60;50.70;;;;;;5052639;28;21024;-67
2023/03/18 11:38:19;;;;;;;0.60;0.50;;;16.70;49.90;;;;;;5068549;28;20605;-67
2023/03/18 11:40:47;;;;;;;1.20;0.77;;;16.70;50.90;;;;;;5069156;28;20659;-67
2023/03/18 11:43:18;;;;;;;0.67;0.60;;;16.70;50.60;;;;;;5068426;28;20614;-67
2023/03/18 11:45:56;;;;;;;0.77;0.73;;;16.70;50.30;;;;;;5068537;28;20649;-67
2023/03/18 11:48:30;;;;;;;1.20;1.10;;;16.60;49.70;;;;;;5068075;28;20617;-67
2023/03/18 11:51:33;;;;;;;1.57;0.73;;;16.70;50.70;;;;;;5068980;28;20694;-69
2023/03/18 11:54:23;;;;;;;0.50;0.40;;;16.80;50.10;;;;;;5054089;28;20691;-67
2023/03/18 11:56:57;;;;;;;0.77;0.77;;;16.80;49.80;;;;;;5068977;28;21072;-67
2023/03/18 11:59:36;;;;;;;1.40;0.50;;;16.90;50.30;;;;;;5068657;28;20657;-67
2023/03/18 12:02:26;;;;;;;0.90;0.57;;;16.90;50.60;;;;;;5071692;28;20652;-67
2023/03/18 12:05:32;;;;;;;0.67;0.60;;;16.90;50.40;;;;;;5072932;28;21035;-67
2023/03/18 12:08:10;;;;;;;1.07;0.63;;;17.00;50.40;;;;;;5052671;28;21155;-68
2023/03/18 12:10:45;;;;;;;0.70;0.60;;;17.00;50.50;;;;;;5062040;28;20752;-67
2023/03/18 12:13:28;;;;;;;1.33;0.70;;;17.00;50.50;;;;;;5071069;28;20672;-68
2023/03/18 12:16:03;;;;;;;0.63;0.63;;;17.10;50.50;;;;;;5070908;28;20685;-67
2023/03/18 12:18:58;;;;;;;1.07;0.57;;;17.20;51.70;;;;;;5070549;28;20633;-67
2023/03/18 12:21:40;;;;;;;3.50;0.83;;;17.20;50.60;;;;;;5070417;28;20656;-69
2023/03/18 12:24:29;;;;;;;1.13;0.60;;;17.30;50.60;;;;;;5068381;28;20628;-67
2023/03/18 12:27:05;;;;;;;0.43;0.43;;;17.30;50.60;;;;;;5069773;28;21242;-68
2023/03/18 12:29:54;;;;;;;0.40;0.40;;;17.50;50.50;;;;;;5069338;28;20617;-68
2023/03/18 12:32:28;;;;;;;0.60;0.60;;;17.50;47.40;;;;;;5064120;28;21239;-66
2023/03/18 12:35:25;;;;;;;0.90;0.63;;;17.80;48.70;;;;;;5072481;28;20660;-65
2023/03/18 12:38:12;;;;;;;1.07;0.50;;;17.50;49.80;;;;;;5065149;28;20647;-66
2023/03/18 12:40:50;;;;;;;1.40;1.10;;;17.70;49.20;;;;;;5071736;28;20656;-66
2023/03/18 12:43:41;;;;;;;4.20;0.90;;;17.70;48.70;;;;;;5071744;28;21193;-67
2023/03/18 12:46:23;;;;;;;0.50;0.30;;;17.70;49.20;;;;;;5071196;28;20641;-66
2023/03/18 12:48:54;;;;;;;1.50;0.50;;;17.70;47.90;;;;;;5070186;28;21198;-66
2023/03/18 12:51:26;;;;;;;2.10;0.67;;;17.70;47.40;;;;;;5071777;28;20756;-66
2023/03/18 12:53:55;;;;;;;0.73;0.60;;;17.70;48.10;;;;;;5058963;28;20667;-66
2023/03/18 12:56:26;;;;;;;0.80;0.77;;;17.90;47.90;;;;;;5071523;28;20649;-68
2023/03/18 12:58:58;;;;;;;0.47;0.47;;;17.80;47.60;;;;;;5070521;28;20626;-66
2023/03/18 13:01:33;;;;;;;0.87;0.83;;;17.90;46.20;;;;;;5071150;28;20651;-66
2023/03/18 13:04:03;;;;;;;0.87;0.70;;;18.00;47.20;;;;;;5055935;28;20702;-66
2023/03/18 13:06:36;;;;;;;0.53;0.40;;;18.20;47.70;;;;;;5070200;28;20649;-66